sensor_id;sensor_type;location;lat;lon;timestamp;P1;durP1;ratioP1;P2;durP2;ratioP2
62102;SDS011;48077;48.104;11.702;2024-02-26T00:01:38;6.00;;;5.38;;
62102;SDS011;48077;48.104;11.702;2024-02-26T00:04:06;4.30;;;4.00;;
62102;SDS011;48077;48.104;11.702;2024-02-26T00:09:03;6.40;;;5.90;;
62102;SDS011;48077;48.104;11.702;2024-02-26T00:11:32;6.55;;;6.15;;
62102;SDS011;48077;48.104;11.702;2024-02-26T00:14:00;5.60;;;5.10;;
62102;SDS011;48077;48.104;11.702;2024-02-26T00:18:56;4.05;;;3.75;;
62102;SDS011;48077;48.104;11.702;2024-02-26T00:21:24;5.20;;;4.80;;
62102;SDS011;48077;48.104;11.702;2024-02-26T00:26:21;4.53;;;4.22;;
62102;SDS011;48077;48.104;11.702;2024-02-26T00:28:49;4.22;;;3.92;;
62102;SDS011;48077;48.104;11.702;2024-02-26T00:31:16;5.03;;;4.63;;
62102;SDS011;48077;48.104;11.702;2024-02-26T00:33:44;4.93;;;4.53;;
62102;SDS011;48077;48.104;11.702;2024-02-26T00:36:12;4.85;;;4.28;;
62102;SDS011;48077;48.104;11.702;2024-02-26T00:38:40;4.82;;;4.53;;
62102;SDS011;48077;48.104;11.702;2024-02-26T00:41:10;3.05;;;2.85;;
62102;SDS011;48077;48.104;11.702;2024-02-26T00:43:38;4.65;;;3.78;;
62102;SDS011;48077;48.104;11.702;2024-02-26T00:46:06;5.07;;;4.68;;
62102;SDS011;48077;48.104;11.702;2024-02-26T00:51:02;4.53;;;4.13;;
62102;SDS011;48077;48.104;11.702;2024-02-26T00:53:31;6.05;;;5.35;;
62102;SDS011;48077;48.104;11.702;2024-02-26T00:55:59;4.15;;;3.75;;
62102;SDS011;48077;48.104;11.702;2024-02-26T00:58:29;4.57;;;4.28;;
62102;SDS011;48077;48.104;11.702;2024-02-26T01:00:56;4.55;;;4.25;;
62102;SDS011;48077;48.104;11.702;2024-02-26T01:07:44;4.22;;;3.85;;
62102;SDS011;48077;48.104;11.702;2024-02-26T01:10:12;3.47;;;3.17;;
62102;SDS011;48077;48.104;11.702;2024-02-26T01:12:39;3.67;;;3.38;;
62102;SDS011;48077;48.104;11.702;2024-02-26T01:15:07;2.78;;;2.17;;
62102;SDS011;48077;48.104;11.702;2024-02-26T01:17:36;3.22;;;2.92;;
62102;SDS011;48077;48.104;11.702;2024-02-26T01:20:05;3.28;;;2.97;;
62102;SDS011;48077;48.104;11.702;2024-02-26T01:22:35;3.78;;;2.95;;
62102;SDS011;48077;48.104;11.702;2024-02-26T01:25:04;4.13;;;3.70;;
62102;SDS011;48077;48.104;11.702;2024-02-26T01:27:33;4.30;;;3.25;;
62102;SDS011;48077;48.104;11.702;2024-02-26T01:30:01;3.85;;;3.40;;
62102;SDS011;48077;48.104;11.702;2024-02-26T01:32:30;4.00;;;3.30;;
62102;SDS011;48077;48.104;11.702;2024-02-26T01:37:25;5.13;;;3.53;;
62102;SDS011;48077;48.104;11.702;2024-02-26T01:39:53;4.13;;;3.38;;
62102;SDS011;48077;48.104;11.702;2024-02-26T01:42:22;4.55;;;3.53;;
62102;SDS011;48077;48.104;11.702;2024-02-26T01:44:50;3.33;;;2.78;;
62102;SDS011;48077;48.104;11.702;2024-02-26T01:47:18;3.63;;;3.33;;
62102;SDS011;48077;48.104;11.702;2024-02-26T01:49:46;6.18;;;5.40;;
62102;SDS011;48077;48.104;11.702;2024-02-26T01:52:14;3.25;;;3.00;;
62102;SDS011;48077;48.104;11.702;2024-02-26T01:54:42;6.10;;;5.60;;
62102;SDS011;48077;48.104;11.702;2024-02-26T01:57:12;6.15;;;2.88;;
62102;SDS011;48077;48.104;11.702;2024-02-26T01:59:43;3.95;;;3.67;;
62102;SDS011;48077;48.104;11.702;2024-02-26T02:02:10;4.32;;;2.92;;
62102;SDS011;48077;48.104;11.702;2024-02-26T02:04:39;2.95;;;2.63;;
62102;SDS011;48077;48.104;11.702;2024-02-26T02:07:08;3.35;;;3.05;;
62102;SDS011;48077;48.104;11.702;2024-02-26T02:12:03;5.05;;;3.47;;
62102;SDS011;48077;48.104;11.702;2024-02-26T02:14:31;4.38;;;2.78;;
62102;SDS011;48077;48.104;11.702;2024-02-26T02:17:01;4.03;;;3.58;;
62102;SDS011;48077;48.104;11.702;2024-02-26T02:19:28;3.92;;;3.63;;
62102;SDS011;48077;48.104;11.702;2024-02-26T02:21:57;4.40;;;3.42;;
62102;SDS011;48077;48.104;11.702;2024-02-26T02:24:25;3.63;;;2.67;;
62102;SDS011;48077;48.104;11.702;2024-02-26T02:26:53;3.42;;;2.83;;
62102;SDS011;48077;48.104;11.702;2024-02-26T02:29:21;2.97;;;2.67;;
62102;SDS011;48077;48.104;11.702;2024-02-26T02:34:17;3.33;;;3.00;;
62102;SDS011;48077;48.104;11.702;2024-02-26T02:36:48;2.88;;;2.67;;
62102;SDS011;48077;48.104;11.702;2024-02-26T02:39:18;3.50;;;2.28;;
62102;SDS011;48077;48.104;11.702;2024-02-26T02:41:46;4.22;;;2.22;;
62102;SDS011;48077;48.104;11.702;2024-02-26T02:46:41;3.42;;;2.65;;
62102;SDS011;48077;48.104;11.702;2024-02-26T02:49:09;3.33;;;2.70;;
62102;SDS011;48077;48.104;11.702;2024-02-26T02:51:37;4.88;;;3.13;;
62102;SDS011;48077;48.104;11.702;2024-02-26T02:54:05;3.60;;;1.90;;
62102;SDS011;48077;48.104;11.702;2024-02-26T02:56:34;2.90;;;2.67;;
62102;SDS011;48077;48.104;11.702;2024-02-26T02:59:02;4.10;;;2.80;;
62102;SDS011;48077;48.104;11.702;2024-02-26T03:03:58;3.35;;;3.05;;
62102;SDS011;48077;48.104;11.702;2024-02-26T03:06:25;2.55;;;2.35;;
62102;SDS011;48077;48.104;11.702;2024-02-26T03:08:54;3.25;;;3.00;;
62102;SDS011;48077;48.104;11.702;2024-02-26T03:11:22;3.85;;;3.53;;
62102;SDS011;48077;48.104;11.702;2024-02-26T03:13:54;3.20;;;2.90;;
62102;SDS011;48077;48.104;11.702;2024-02-26T03:16:21;3.85;;;3.20;;
62102;SDS011;48077;48.104;11.702;2024-02-26T03:18:49;2.45;;;2.20;;
62102;SDS011;48077;48.104;11.702;2024-02-26T03:21:17;3.97;;;2.97;;
62102;SDS011;48077;48.104;11.702;2024-02-26T03:23:45;2.95;;;2.75;;
62102;SDS011;48077;48.104;11.702;2024-02-26T03:26:13;4.18;;;2.55;;
62102;SDS011;48077;48.104;11.702;2024-02-26T03:28:41;3.95;;;3.47;;
62102;SDS011;48077;48.104;11.702;2024-02-26T03:31:10;2.67;;;2.47;;
62102;SDS011;48077;48.104;11.702;2024-02-26T03:33:38;3.80;;;3.50;;
62102;SDS011;48077;48.104;11.702;2024-02-26T03:36:06;3.72;;;3.40;;
62102;SDS011;48077;48.104;11.702;2024-02-26T03:38:34;4.30;;;3.20;;
62102;SDS011;48077;48.104;11.702;2024-02-26T03:41:02;4.05;;;2.33;;
62102;SDS011;48077;48.104;11.702;2024-02-26T03:43:30;4.00;;;2.97;;
62102;SDS011;48077;48.104;11.702;2024-02-26T03:48:27;2.58;;;1.88;;
62102;SDS011;48077;48.104;11.702;2024-02-26T03:50:55;2.58;;;2.38;;
62102;SDS011;48077;48.104;11.702;2024-02-26T03:53:23;2.42;;;2.22;;
62102;SDS011;48077;48.104;11.702;2024-02-26T03:55:51;3.00;;;2.50;;
62102;SDS011;48077;48.104;11.702;2024-02-26T04:00:46;2.53;;;2.33;;
62102;SDS011;48077;48.104;11.702;2024-02-26T04:03:15;2.33;;;2.13;;
62102;SDS011;48077;48.104;11.702;2024-02-26T04:05:44;2.75;;;2.55;;
62102;SDS011;48077;48.104;11.702;2024-02-26T04:08:12;3.17;;;2.88;;
62102;SDS011;48077;48.104;11.702;2024-02-26T04:10:40;5.82;;;2.35;;
62102;SDS011;48077;48.104;11.702;2024-02-26T04:13:08;5.93;;;2.13;;
62102;SDS011;48077;48.104;11.702;2024-02-26T04:15:36;6.28;;;5.88;;
62102;SDS011;48077;48.104;11.702;2024-02-26T04:18:04;2.97;;;2.67;;
62102;SDS011;48077;48.104;11.702;2024-02-26T04:20:32;4.03;;;3.63;;
62102;SDS011;48077;48.104;11.702;2024-02-26T04:23:01;3.20;;;2.92;;
62102;SDS011;48077;48.104;11.702;2024-02-26T04:25:29;3.25;;;2.95;;
62102;SDS011;48077;48.104;11.702;2024-02-26T04:27:57;3.38;;;3.08;;
62102;SDS011;48077;48.104;11.702;2024-02-26T04:30:24;3.25;;;2.95;;
62102;SDS011;48077;48.104;11.702;2024-02-26T04:32:52;2.38;;;2.17;;
62102;SDS011;48077;48.104;11.702;2024-02-26T04:35:20;3.15;;;2.88;;
62102;SDS011;48077;48.104;11.702;2024-02-26T04:37:48;3.35;;;2.80;;
62102;SDS011;48077;48.104;11.702;2024-02-26T04:40:17;3.00;;;2.50;;
62102;SDS011;48077;48.104;11.702;2024-02-26T04:42:44;4.43;;;2.22;;
62102;SDS011;48077;48.104;11.702;2024-02-26T04:47:40;3.33;;;2.20;;
62102;SDS011;48077;48.104;11.702;2024-02-26T04:50:08;2.55;;;2.35;;
62102;SDS011;48077;48.104;11.702;2024-02-26T04:52:36;1.63;;;1.48;;
62102;SDS011;48077;48.104;11.702;2024-02-26T04:55:04;2.25;;;1.88;;
62102;SDS011;48077;48.104;11.702;2024-02-26T04:57:33;2.83;;;2.63;;
62102;SDS011;48077;48.104;11.702;2024-02-26T05:00:01;3.45;;;2.45;;
62102;SDS011;48077;48.104;11.702;2024-02-26T05:02:31;3.08;;;1.88;;
62102;SDS011;48077;48.104;11.702;2024-02-26T05:04:59;3.30;;;2.60;;
62102;SDS011;48077;48.104;11.702;2024-02-26T05:07:27;2.33;;;2.08;;
62102;SDS011;48077;48.104;11.702;2024-02-26T05:12:23;3.30;;;3.10;;
62102;SDS011;48077;48.104;11.702;2024-02-26T05:14:52;3.67;;;3.47;;
62102;SDS011;48077;48.104;11.702;2024-02-26T05:17:19;2.38;;;2.15;;
62102;SDS011;48077;48.104;11.702;2024-02-26T05:19:50;3.00;;;2.15;;
62102;SDS011;48077;48.104;11.702;2024-02-26T05:22:18;3.30;;;2.45;;
62102;SDS011;48077;48.104;11.702;2024-02-26T05:24:45;2.20;;;1.88;;
62102;SDS011;48077;48.104;11.702;2024-02-26T05:27:13;2.33;;;2.13;;
62102;SDS011;48077;48.104;11.702;2024-02-26T05:29:41;2.15;;;2.00;;
62102;SDS011;48077;48.104;11.702;2024-02-26T05:34:38;4.05;;;3.35;;
62102;SDS011;48077;48.104;11.702;2024-02-26T05:37:07;2.30;;;2.20;;
62102;SDS011;48077;48.104;11.702;2024-02-26T05:39:35;1.95;;;1.85;;
62102;SDS011;48077;48.104;11.702;2024-02-26T05:44:31;4.47;;;2.30;;
62102;SDS011;48077;48.104;11.702;2024-02-26T05:46:58;2.28;;;2.08;;
62102;SDS011;48077;48.104;11.702;2024-02-26T05:49:30;2.42;;;1.88;;
62102;SDS011;48077;48.104;11.702;2024-02-26T05:51:58;2.47;;;2.28;;
62102;SDS011;48077;48.104;11.702;2024-02-26T05:54:26;2.03;;;1.83;;
62102;SDS011;48077;48.104;11.702;2024-02-26T05:56:54;2.42;;;2.22;;
62102;SDS011;48077;48.104;11.702;2024-02-26T05:59:22;3.13;;;2.40;;
62102;SDS011;48077;48.104;11.702;2024-02-26T06:04:17;2.35;;;2.15;;
62102;SDS011;48077;48.104;11.702;2024-02-26T06:06:47;2.13;;;1.88;;
62102;SDS011;48077;48.104;11.702;2024-02-26T06:09:15;6.28;;;2.05;;
62102;SDS011;48077;48.104;11.702;2024-02-26T06:14:11;6.03;;;5.63;;
62102;SDS011;48077;48.104;11.702;2024-02-26T06:16:40;2.20;;;2.00;;
62102;SDS011;48077;48.104;11.702;2024-02-26T06:19:08;2.35;;;2.15;;
62102;SDS011;48077;48.104;11.702;2024-02-26T06:21:39;3.90;;;2.50;;
62102;SDS011;48077;48.104;11.702;2024-02-26T06:26:36;3.15;;;2.75;;
62102;SDS011;48077;48.104;11.702;2024-02-26T06:29:04;1.80;;;1.70;;
62102;SDS011;48077;48.104;11.702;2024-02-26T06:31:31;2.35;;;2.00;;
62102;SDS011;48077;48.104;11.702;2024-02-26T06:33:59;2.95;;;2.70;;
62102;SDS011;48077;48.104;11.702;2024-02-26T06:36:27;2.75;;;2.50;;
62102;SDS011;48077;48.104;11.702;2024-02-26T06:38:57;2.30;;;2.03;;
62102;SDS011;48077;48.104;11.702;2024-02-26T06:41:27;4.10;;;3.85;;
62102;SDS011;48077;48.104;11.702;2024-02-26T06:43:56;2.88;;;2.42;;
62102;SDS011;48077;48.104;11.702;2024-02-26T06:48:52;1.83;;;1.73;;
62102;SDS011;48077;48.104;11.702;2024-02-26T06:51:21;3.60;;;2.00;;
62102;SDS011;48077;48.104;11.702;2024-02-26T06:53:49;3.55;;;2.55;;
62102;SDS011;48077;48.104;11.702;2024-02-26T06:56:17;2.15;;;1.98;;
62102;SDS011;48077;48.104;11.702;2024-02-26T06:58:47;2.92;;;2.50;;
62102;SDS011;48077;48.104;11.702;2024-02-26T07:01:14;2.90;;;2.40;;
62102;SDS011;48077;48.104;11.702;2024-02-26T07:06:10;3.08;;;2.88;;
62102;SDS011;48077;48.104;11.702;2024-02-26T07:08:39;3.00;;;2.65;;
62102;SDS011;48077;48.104;11.702;2024-02-26T07:11:07;3.67;;;3.38;;
62102;SDS011;48077;48.104;11.702;2024-02-26T07:13:36;4.10;;;3.53;;
62102;SDS011;48077;48.104;11.702;2024-02-26T07:18:33;3.50;;;2.58;;
62102;SDS011;48077;48.104;11.702;2024-02-26T07:21:01;2.65;;;2.45;;
62102;SDS011;48077;48.104;11.702;2024-02-26T07:23:30;4.53;;;2.08;;
62102;SDS011;48077;48.104;11.702;2024-02-26T07:25:58;4.85;;;2.88;;
62102;SDS011;48077;48.104;11.702;2024-02-26T07:28:26;3.00;;;2.42;;
62102;SDS011;48077;48.104;11.702;2024-02-26T07:30:54;2.50;;;1.88;;
62102;SDS011;48077;48.104;11.702;2024-02-26T07:33:23;5.68;;;2.03;;
62102;SDS011;48077;48.104;11.702;2024-02-26T07:35:51;2.03;;;1.80;;
62102;SDS011;48077;48.104;11.702;2024-02-26T07:38:20;3.78;;;3.47;;
62102;SDS011;48077;48.104;11.702;2024-02-26T07:41:07;3.85;;;3.05;;
62102;SDS011;48077;48.104;11.702;2024-02-26T07:43:34;6.32;;;2.53;;
62102;SDS011;48077;48.104;11.702;2024-02-26T07:46:02;4.93;;;2.28;;
62102;SDS011;48077;48.104;11.702;2024-02-26T07:48:32;4.00;;;3.25;;
62102;SDS011;48077;48.104;11.702;2024-02-26T07:51:00;4.53;;;4.22;;
62102;SDS011;48077;48.104;11.702;2024-02-26T07:53:29;3.08;;;1.80;;
62102;SDS011;48077;48.104;11.702;2024-02-26T07:55:57;1.73;;;1.63;;
62102;SDS011;48077;48.104;11.702;2024-02-26T07:58:25;3.88;;;2.40;;
62102;SDS011;48077;48.104;11.702;2024-02-26T08:00:53;2.70;;;1.50;;
62102;SDS011;48077;48.104;11.702;2024-02-26T08:03:22;2.15;;;1.85;;
62102;SDS011;48077;48.104;11.702;2024-02-26T08:05:51;1.75;;;1.65;;
62102;SDS011;48077;48.104;11.702;2024-02-26T08:08:19;6.13;;;5.72;;
62102;SDS011;48077;48.104;11.702;2024-02-26T08:13:15;3.13;;;2.40;;
62102;SDS011;48077;48.104;11.702;2024-02-26T08:18:10;2.33;;;2.13;;
62102;SDS011;48077;48.104;11.702;2024-02-26T08:20:38;2.03;;;1.90;;
62102;SDS011;48077;48.104;11.702;2024-02-26T08:25:35;1.98;;;1.35;;
62102;SDS011;48077;48.104;11.702;2024-02-26T08:30:31;2.15;;;1.95;;
62102;SDS011;48077;48.104;11.702;2024-02-26T08:33:00;2.63;;;2.13;;
62102;SDS011;48077;48.104;11.702;2024-02-26T08:35:28;3.63;;;2.05;;
62102;SDS011;48077;48.104;11.702;2024-02-26T08:37:56;2.30;;;2.10;;
62102;SDS011;48077;48.104;11.702;2024-02-26T08:42:53;4.35;;;2.88;;
62102;SDS011;48077;48.104;11.702;2024-02-26T08:45:21;2.90;;;2.03;;
62102;SDS011;48077;48.104;11.702;2024-02-26T08:47:53;2.10;;;1.40;;
62102;SDS011;48077;48.104;11.702;2024-02-26T08:50:20;1.92;;;1.83;;
62102;SDS011;48077;48.104;11.702;2024-02-26T08:55:17;2.25;;;1.77;;
62102;SDS011;48077;48.104;11.702;2024-02-26T08:57:46;2.10;;;1.50;;
62102;SDS011;48077;48.104;11.702;2024-02-26T09:00:15;2.15;;;1.95;;
62102;SDS011;48077;48.104;11.702;2024-02-26T09:02:47;2.05;;;1.95;;
62102;SDS011;48077;48.104;11.702;2024-02-26T09:05:15;2.60;;;2.20;;
62102;SDS011;48077;48.104;11.702;2024-02-26T09:07:43;1.95;;;1.65;;
62102;SDS011;48077;48.104;11.702;2024-02-26T09:10:12;1.75;;;1.60;;
62102;SDS011;48077;48.104;11.702;2024-02-26T09:12:40;2.05;;;1.38;;
62102;SDS011;48077;48.104;11.702;2024-02-26T09:15:10;1.67;;;1.45;;
62102;SDS011;48077;48.104;11.702;2024-02-26T09:17:38;4.35;;;2.08;;
62102;SDS011;48077;48.104;11.702;2024-02-26T09:20:06;2.80;;;2.60;;
62102;SDS011;48077;48.104;11.702;2024-02-26T09:22:35;3.67;;;2.00;;
62102;SDS011;48077;48.104;11.702;2024-02-26T09:25:04;8.27;;;3.95;;
62102;SDS011;48077;48.104;11.702;2024-02-26T09:27:32;2.45;;;1.67;;
62102;SDS011;48077;48.104;11.702;2024-02-26T09:30:00;2.28;;;1.70;;
62102;SDS011;48077;48.104;11.702;2024-02-26T09:32:30;1.63;;;1.52;;
62102;SDS011;48077;48.104;11.702;2024-02-26T09:34:58;3.13;;;2.05;;
62102;SDS011;48077;48.104;11.702;2024-02-26T09:37:26;2.15;;;1.98;;
62102;SDS011;48077;48.104;11.702;2024-02-26T09:39:53;2.00;;;1.52;;
62102;SDS011;48077;48.104;11.702;2024-02-26T09:42:21;3.05;;;2.75;;
62102;SDS011;48077;48.104;11.702;2024-02-26T09:44:53;3.33;;;3.13;;
62102;SDS011;48077;48.104;11.702;2024-02-26T09:47:23;1.77;;;1.67;;
62102;SDS011;48077;48.104;11.702;2024-02-26T09:49:52;2.80;;;1.75;;
62102;SDS011;48077;48.104;11.702;2024-02-26T09:52:21;2.53;;;2.28;;
62102;SDS011;48077;48.104;11.702;2024-02-26T09:54:50;2.90;;;2.17;;
62102;SDS011;48077;48.104;11.702;2024-02-26T09:57:18;2.53;;;1.60;;
62102;SDS011;48077;48.104;11.702;2024-02-26T09:59:51;3.88;;;1.48;;
62102;SDS011;48077;48.104;11.702;2024-02-26T10:02:22;4.18;;;3.85;;
62102;SDS011;48077;48.104;11.702;2024-02-26T10:04:52;4.80;;;1.65;;
62102;SDS011;48077;48.104;11.702;2024-02-26T10:07:24;1.75;;;1.63;;
62102;SDS011;48077;48.104;11.702;2024-02-26T10:09:52;1.00;;;0.90;;
62102;SDS011;48077;48.104;11.702;2024-02-26T10:12:20;1.30;;;1.20;;
62102;SDS011;48077;48.104;11.702;2024-02-26T10:14:48;3.20;;;2.20;;
62102;SDS011;48077;48.104;11.702;2024-02-26T10:17:16;1.20;;;0.85;;
62102;SDS011;48077;48.104;11.702;2024-02-26T10:19:44;1.83;;;1.67;;
62102;SDS011;48077;48.104;11.702;2024-02-26T10:22:13;1.80;;;1.70;;
62102;SDS011;48077;48.104;11.702;2024-02-26T10:24:41;1.65;;;1.27;;
62102;SDS011;48077;48.104;11.702;2024-02-26T10:27:09;2.50;;;1.45;;
62102;SDS011;48077;48.104;11.702;2024-02-26T10:29:37;1.55;;;1.45;;
62102;SDS011;48077;48.104;11.702;2024-02-26T10:32:05;2.72;;;1.48;;
62102;SDS011;48077;48.104;11.702;2024-02-26T10:34:33;1.30;;;1.20;;
62102;SDS011;48077;48.104;11.702;2024-02-26T10:37:04;2.22;;;1.15;;
62102;SDS011;48077;48.104;11.702;2024-02-26T10:39:35;1.60;;;1.50;;
62102;SDS011;48077;48.104;11.702;2024-02-26T10:42:04;2.05;;;1.95;;
62102;SDS011;48077;48.104;11.702;2024-02-26T10:44:36;2.10;;;1.90;;
62102;SDS011;48077;48.104;11.702;2024-02-26T10:47:04;2.88;;;1.48;;
62102;SDS011;48077;48.104;11.702;2024-02-26T10:49:33;2.17;;;1.30;;
62102;SDS011;48077;48.104;11.702;2024-02-26T10:52:03;2.58;;;1.83;;
62102;SDS011;48077;48.104;11.702;2024-02-26T10:54:34;1.73;;;1.60;;
62102;SDS011;48077;48.104;11.702;2024-02-26T10:57:05;2.00;;;1.73;;
62102;SDS011;48077;48.104;11.702;2024-02-26T10:59:35;1.60;;;1.50;;
62102;SDS011;48077;48.104;11.702;2024-02-26T11:02:05;2.33;;;1.58;;
62102;SDS011;48077;48.104;11.702;2024-02-26T11:04:36;2.75;;;1.75;;
62102;SDS011;48077;48.104;11.702;2024-02-26T11:07:05;3.25;;;2.53;;
62102;SDS011;48077;48.104;11.702;2024-02-26T11:09:38;2.97;;;1.98;;
62102;SDS011;48077;48.104;11.702;2024-02-26T11:12:10;4.20;;;0.98;;
62102;SDS011;48077;48.104;11.702;2024-02-26T11:14:40;2.63;;;1.27;;
62102;SDS011;48077;48.104;11.702;2024-02-26T11:17:10;1.40;;;0.90;;
62102;SDS011;48077;48.104;11.702;2024-02-26T11:19:40;2.33;;;1.67;;
62102;SDS011;48077;48.104;11.702;2024-02-26T11:22:10;2.15;;;1.48;;
62102;SDS011;48077;48.104;11.702;2024-02-26T11:24:51;1.48;;;1.20;;
62102;SDS011;48077;48.104;11.702;2024-02-26T11:27:21;1.75;;;1.13;;
62102;SDS011;48077;48.104;11.702;2024-02-26T11:29:53;3.78;;;1.20;;
62102;SDS011;48077;48.104;11.702;2024-02-26T11:32:23;1.63;;;1.23;;
62102;SDS011;48077;48.104;11.702;2024-02-26T11:34:52;1.80;;;1.02;;
62102;SDS011;48077;48.104;11.702;2024-02-26T11:37:21;2.08;;;1.13;;
62102;SDS011;48077;48.104;11.702;2024-02-26T11:39:51;2.17;;;1.02;;
62102;SDS011;48077;48.104;11.702;2024-02-26T11:42:22;2.10;;;1.45;;
62102;SDS011;48077;48.104;11.702;2024-02-26T11:44:51;1.75;;;1.65;;
62102;SDS011;48077;48.104;11.702;2024-02-26T11:47:20;1.27;;;1.15;;
62102;SDS011;48077;48.104;11.702;2024-02-26T11:49:49;1.13;;;1.02;;
62102;SDS011;48077;48.104;11.702;2024-02-26T11:52:17;1.27;;;0.85;;
62102;SDS011;48077;48.104;11.702;2024-02-26T11:54:46;2.65;;;1.13;;
62102;SDS011;48077;48.104;11.702;2024-02-26T11:57:25;1.90;;;1.63;;
62102;SDS011;48077;48.104;11.702;2024-02-26T11:59:55;1.98;;;1.33;;
62102;SDS011;48077;48.104;11.702;2024-02-26T12:02:37;1.90;;;1.80;;
62102;SDS011;48077;48.104;11.702;2024-02-26T12:05:07;1.23;;;1.00;;
62102;SDS011;48077;48.104;11.702;2024-02-26T12:07:39;1.42;;;1.33;;
62102;SDS011;48077;48.104;11.702;2024-02-26T12:10:15;1.55;;;1.45;;
62102;SDS011;48077;48.104;11.702;2024-02-26T12:12:49;2.50;;;1.27;;
62102;SDS011;48077;48.104;11.702;2024-02-26T12:15:22;4.28;;;0.68;;
62102;SDS011;48077;48.104;11.702;2024-02-26T12:17:50;1.17;;;1.08;;
62102;SDS011;48077;48.104;11.702;2024-02-26T12:20:18;2.70;;;0.75;;
62102;SDS011;48077;48.104;11.702;2024-02-26T12:22:47;0.93;;;0.85;;
62102;SDS011;48077;48.104;11.702;2024-02-26T12:25:15;1.17;;;0.55;;
62102;SDS011;48077;48.104;11.702;2024-02-26T12:27:43;1.35;;;1.13;;
62102;SDS011;48077;48.104;11.702;2024-02-26T12:30:13;2.33;;;1.10;;
62102;SDS011;48077;48.104;11.702;2024-02-26T12:32:41;1.08;;;0.88;;
62102;SDS011;48077;48.104;11.702;2024-02-26T12:35:09;1.38;;;0.68;;
62102;SDS011;48077;48.104;11.702;2024-02-26T12:37:36;1.98;;;1.08;;
62102;SDS011;48077;48.104;11.702;2024-02-26T12:40:09;0.98;;;0.77;;
62102;SDS011;48077;48.104;11.702;2024-02-26T12:42:38;1.13;;;1.02;;
62102;SDS011;48077;48.104;11.702;2024-02-26T12:45:07;1.42;;;0.57;;
62102;SDS011;48077;48.104;11.702;2024-02-26T12:47:38;1.23;;;1.13;;
62102;SDS011;48077;48.104;11.702;2024-02-26T12:50:06;1.05;;;0.60;;
62102;SDS011;48077;48.104;11.702;2024-02-26T12:52:36;1.23;;;0.63;;
62102;SDS011;48077;48.104;11.702;2024-02-26T12:55:11;0.82;;;0.73;;
62102;SDS011;48077;48.104;11.702;2024-02-26T12:57:43;2.90;;;0.77;;
62102;SDS011;48077;48.104;11.702;2024-02-26T13:00:13;1.08;;;0.98;;
62102;SDS011;48077;48.104;11.702;2024-02-26T13:02:44;1.08;;;0.98;;
62102;SDS011;48077;48.104;11.702;2024-02-26T13:05:13;2.92;;;1.13;;
62102;SDS011;48077;48.104;11.702;2024-02-26T13:07:42;0.75;;;0.75;;
62102;SDS011;48077;48.104;11.702;2024-02-26T13:10:11;2.13;;;1.33;;
62102;SDS011;48077;48.104;11.702;2024-02-26T13:12:42;3.78;;;1.85;;
62102;SDS011;48077;48.104;11.702;2024-02-26T13:15:13;3.03;;;2.10;;
62102;SDS011;48077;48.104;11.702;2024-02-26T13:17:42;4.20;;;2.45;;
62102;SDS011;48077;48.104;11.702;2024-02-26T13:20:12;3.80;;;2.47;;
62102;SDS011;48077;48.104;11.702;2024-02-26T13:22:41;5.65;;;2.45;;
62102;SDS011;48077;48.104;11.702;2024-02-26T13:25:09;4.45;;;2.63;;
62102;SDS011;48077;48.104;11.702;2024-02-26T13:27:37;4.30;;;2.28;;
62102;SDS011;48077;48.104;11.702;2024-02-26T13:30:05;4.38;;;3.33;;
62102;SDS011;48077;48.104;11.702;2024-02-26T13:32:37;4.50;;;2.53;;
62102;SDS011;48077;48.104;11.702;2024-02-26T13:35:06;4.72;;;2.63;;
62102;SDS011;48077;48.104;11.702;2024-02-26T13:37:36;8.27;;;2.75;;
62102;SDS011;48077;48.104;11.702;2024-02-26T13:40:05;6.35;;;2.53;;
62102;SDS011;48077;48.104;11.702;2024-02-26T13:42:35;6.38;;;2.95;;
62102;SDS011;48077;48.104;11.702;2024-02-26T13:45:03;4.00;;;2.92;;
62102;SDS011;48077;48.104;11.702;2024-02-26T13:47:33;3.35;;;2.67;;
62102;SDS011;48077;48.104;11.702;2024-02-26T13:50:01;5.03;;;2.85;;
62102;SDS011;48077;48.104;11.702;2024-02-26T13:52:29;3.78;;;2.53;;
62102;SDS011;48077;48.104;11.702;2024-02-26T13:54:59;4.50;;;3.20;;
62102;SDS011;48077;48.104;11.702;2024-02-26T13:57:28;3.58;;;2.10;;
62102;SDS011;48077;48.104;11.702;2024-02-26T13:59:56;3.40;;;2.17;;
62102;SDS011;48077;48.104;11.702;2024-02-26T14:02:24;4.85;;;4.45;;
62102;SDS011;48077;48.104;11.702;2024-02-26T14:04:52;3.08;;;1.80;;
62102;SDS011;48077;48.104;11.702;2024-02-26T14:07:20;5.13;;;2.40;;
62102;SDS011;48077;48.104;11.702;2024-02-26T14:09:48;3.70;;;1.95;;
62102;SDS011;48077;48.104;11.702;2024-02-26T14:12:19;3.60;;;2.75;;
62102;SDS011;48077;48.104;11.702;2024-02-26T14:14:50;2.88;;;1.60;;
62102;SDS011;48077;48.104;11.702;2024-02-26T14:17:19;3.83;;;2.47;;
62102;SDS011;48077;48.104;11.702;2024-02-26T14:19:47;5.60;;;2.45;;
62102;SDS011;48077;48.104;11.702;2024-02-26T14:22:16;3.90;;;2.38;;
62102;SDS011;48077;48.104;11.702;2024-02-26T14:24:44;7.80;;;4.43;;
62102;SDS011;48077;48.104;11.702;2024-02-26T14:27:12;3.28;;;2.45;;
62102;SDS011;48077;48.104;11.702;2024-02-26T14:29:43;4.05;;;2.03;;
62102;SDS011;48077;48.104;11.702;2024-02-26T14:32:11;3.15;;;2.25;;
62102;SDS011;48077;48.104;11.702;2024-02-26T14:34:39;3.33;;;2.25;;
62102;SDS011;48077;48.104;11.702;2024-02-26T14:37:07;3.13;;;2.47;;
62102;SDS011;48077;48.104;11.702;2024-02-26T14:39:35;3.75;;;2.63;;
62102;SDS011;48077;48.104;11.702;2024-02-26T14:42:05;4.65;;;1.90;;
62102;SDS011;48077;48.104;11.702;2024-02-26T14:44:33;3.63;;;2.17;;
62102;SDS011;48077;48.104;11.702;2024-02-26T14:47:02;3.35;;;2.70;;
62102;SDS011;48077;48.104;11.702;2024-02-26T14:49:30;3.60;;;2.22;;
62102;SDS011;48077;48.104;11.702;2024-02-26T14:51:58;4.68;;;3.58;;
62102;SDS011;48077;48.104;11.702;2024-02-26T14:54:26;3.03;;;2.58;;
62102;SDS011;48077;48.104;11.702;2024-02-26T14:56:54;2.80;;;1.98;;
62102;SDS011;48077;48.104;11.702;2024-02-26T14:59:22;2.78;;;1.90;;
62102;SDS011;48077;48.104;11.702;2024-02-26T15:01:50;4.85;;;1.63;;
62102;SDS011;48077;48.104;11.702;2024-02-26T15:04:19;3.42;;;2.15;;
62102;SDS011;48077;48.104;11.702;2024-02-26T15:06:47;2.60;;;1.65;;
62102;SDS011;48077;48.104;11.702;2024-02-26T15:09:15;3.08;;;2.78;;
62102;SDS011;48077;48.104;11.702;2024-02-26T15:11:42;4.15;;;2.53;;
62102;SDS011;48077;48.104;11.702;2024-02-26T15:14:10;4.38;;;1.52;;
62102;SDS011;48077;48.104;11.702;2024-02-26T15:16:38;3.15;;;2.38;;
62102;SDS011;48077;48.104;11.702;2024-02-26T15:19:07;3.90;;;2.15;;
62102;SDS011;48077;48.104;11.702;2024-02-26T15:24:13;3.47;;;2.17;;
62102;SDS011;48077;48.104;11.702;2024-02-26T15:26:43;2.63;;;1.73;;
62102;SDS011;48077;48.104;11.702;2024-02-26T15:29:11;5.28;;;2.22;;
62102;SDS011;48077;48.104;11.702;2024-02-26T15:31:38;3.67;;;2.28;;
62102;SDS011;48077;48.104;11.702;2024-02-26T15:34:06;3.75;;;2.60;;
62102;SDS011;48077;48.104;11.702;2024-02-26T15:36:35;4.43;;;2.08;;
62102;SDS011;48077;48.104;11.702;2024-02-26T15:39:04;4.32;;;1.98;;
62102;SDS011;48077;48.104;11.702;2024-02-26T15:41:33;3.85;;;1.98;;
62102;SDS011;48077;48.104;11.702;2024-02-26T15:44:01;2.53;;;1.92;;
62102;SDS011;48077;48.104;11.702;2024-02-26T15:46:29;3.70;;;2.08;;
62102;SDS011;48077;48.104;11.702;2024-02-26T15:48:58;6.07;;;5.18;;
62102;SDS011;48077;48.104;11.702;2024-02-26T15:51:26;3.40;;;1.77;;
62102;SDS011;48077;48.104;11.702;2024-02-26T15:53:54;4.22;;;2.22;;
62102;SDS011;48077;48.104;11.702;2024-02-26T15:56:23;3.38;;;1.70;;